sensor_id;sensor_type;location;lat;lon;timestamp;P1;durP1;ratioP1;P2;durP2;ratioP2
72684;SDS011;61365;52.162;4.500;2022-10-16T00:01:37;5.07;;;1.10;;
72684;SDS011;61365;52.162;4.500;2022-10-16T00:04:04;4.35;;;1.30;;
72684;SDS011;61365;52.162;4.500;2022-10-16T00:06:30;5.57;;;1.20;;
72684;SDS011;61365;52.162;4.500;2022-10-16T00:08:57;2.90;;;1.20;;
72684;SDS011;61365;52.162;4.500;2022-10-16T00:11:28;3.95;;;1.20;;
72684;SDS011;61365;52.162;4.500;2022-10-16T00:14:03;2.80;;;1.00;;
72684;SDS011;61365;52.162;4.500;2022-10-16T00:16:35;6.70;;;1.10;;
72684;SDS011;61365;52.162;4.500;2022-10-16T00:19:02;3.30;;;0.80;;
72684;SDS011;61365;52.162;4.500;2022-10-16T00:21:29;2.67;;;0.95;;
72684;SDS011;61365;52.162;4.500;2022-10-16T00:24:02;3.70;;;1.00;;
72684;SDS011;61365;52.162;4.500;2022-10-16T00:26:37;4.32;;;1.27;;
72684;SDS011;61365;52.162;4.500;2022-10-16T00:29:04;5.43;;;1.10;;
72684;SDS011;61365;52.162;4.500;2022-10-16T00:31:32;5.80;;;1.23;;
72684;SDS011;61365;52.162;4.500;2022-10-16T00:33:58;1.38;;;0.90;;
72684;SDS011;61365;52.162;4.500;2022-10-16T00:36:26;3.97;;;1.10;;
72684;SDS011;61365;52.162;4.500;2022-10-16T00:38:53;6.47;;;1.15;;
72684;SDS011;61365;52.162;4.500;2022-10-16T00:41:23;8.25;;;1.33;;
72684;SDS011;61365;52.162;4.500;2022-10-16T00:46:21;4.40;;;1.45;;
72684;SDS011;61365;52.162;4.500;2022-10-16T00:49:04;4.45;;;1.02;;
72684;SDS011;61365;52.162;4.500;2022-10-16T00:51:39;4.10;;;1.00;;
72684;SDS011;61365;52.162;4.500;2022-10-16T00:54:21;4.97;;;1.10;;
72684;SDS011;61365;52.162;4.500;2022-10-16T00:56:54;2.63;;;0.95;;
72684;SDS011;61365;52.162;4.500;2022-10-16T00:59:27;2.88;;;0.98;;
72684;SDS011;61365;52.162;4.500;2022-10-16T01:01:57;2.80;;;0.90;;
72684;SDS011;61365;52.162;4.500;2022-10-16T01:04:25;4.63;;;1.00;;
72684;SDS011;61365;52.162;4.500;2022-10-16T01:09:38;1.58;;;0.80;;
72684;SDS011;61365;52.162;4.500;2022-10-16T01:12:23;4.43;;;0.93;;
72684;SDS011;61365;52.162;4.500;2022-10-16T01:15:30;3.08;;;0.93;;
72684;SDS011;61365;52.162;4.500;2022-10-16T01:18:08;3.50;;;1.25;;
72684;SDS011;61365;52.162;4.500;2022-10-16T01:21:02;4.25;;;0.77;;
72684;SDS011;61365;52.162;4.500;2022-10-16T01:23:44;3.78;;;1.10;;
72684;SDS011;61365;52.162;4.500;2022-10-16T01:29:37;1.55;;;0.80;;
72684;SDS011;61365;52.162;4.500;2022-10-16T01:35:05;4.22;;;1.20;;
72684;SDS011;61365;52.162;4.500;2022-10-16T01:37:50;3.55;;;1.50;;
72684;SDS011;61365;52.162;4.500;2022-10-16T01:40:24;4.22;;;1.13;;
72684;SDS011;61365;52.162;4.500;2022-10-16T01:42:59;2.97;;;1.10;;
72684;SDS011;61365;52.162;4.500;2022-10-16T01:45:31;5.20;;;1.00;;
72684;SDS011;61365;52.162;4.500;2022-10-16T01:48:00;6.43;;;1.10;;
72684;SDS011;61365;52.162;4.500;2022-10-16T01:50:34;3.78;;;0.80;;
72684;SDS011;61365;52.162;4.500;2022-10-16T01:53:06;5.20;;;1.33;;
72684;SDS011;61365;52.162;4.500;2022-10-16T01:55:38;6.68;;;0.98;;
72684;SDS011;61365;52.162;4.500;2022-10-16T01:58:11;1.90;;;0.82;;
72684;SDS011;61365;52.162;4.500;2022-10-16T02:00:41;5.18;;;1.20;;
72684;SDS011;61365;52.162;4.500;2022-10-16T02:03:13;7.18;;;1.33;;
72684;SDS011;61365;52.162;4.500;2022-10-16T02:05:49;2.22;;;1.00;;
72684;SDS011;61365;52.162;4.500;2022-10-16T02:08:21;5.78;;;1.40;;
72684;SDS011;61365;52.162;4.500;2022-10-16T02:10:51;4.68;;;1.33;;
72684;SDS011;61365;52.162;4.500;2022-10-16T02:13:20;5.45;;;1.17;;
72684;SDS011;61365;52.162;4.500;2022-10-16T02:15:53;5.05;;;1.27;;
72684;SDS011;61365;52.162;4.500;2022-10-16T02:18:20;2.70;;;1.20;;
72684;SDS011;61365;52.162;4.500;2022-10-16T02:23:24;4.57;;;1.55;;
72684;SDS011;61365;52.162;4.500;2022-10-16T02:26:03;3.00;;;1.30;;
72684;SDS011;61365;52.162;4.500;2022-10-16T02:28:39;4.10;;;1.20;;
72684;SDS011;61365;52.162;4.500;2022-10-16T02:31:14;2.00;;;0.98;;
72684;SDS011;61365;52.162;4.500;2022-10-16T02:33:51;6.57;;;1.35;;
72684;SDS011;61365;52.162;4.500;2022-10-16T02:36:22;3.38;;;1.10;;
72684;SDS011;61365;52.162;4.500;2022-10-16T02:38:49;1.92;;;1.00;;
72684;SDS011;61365;52.162;4.500;2022-10-16T02:41:19;5.65;;;1.20;;
72684;SDS011;61365;52.162;4.500;2022-10-16T02:43:48;2.92;;;1.25;;
72684;SDS011;61365;52.162;4.500;2022-10-16T02:46:15;3.03;;;1.55;;
72684;SDS011;61365;52.162;4.500;2022-10-16T02:48:43;5.43;;;1.70;;
72684;SDS011;61365;52.162;4.500;2022-10-16T02:51:09;2.05;;;1.00;;
72684;SDS011;61365;52.162;4.500;2022-10-16T02:53:35;4.38;;;1.45;;
72684;SDS011;61365;52.162;4.500;2022-10-16T02:56:02;8.20;;;1.60;;
72684;SDS011;61365;52.162;4.500;2022-10-16T02:58:28;4.15;;;1.67;;
72684;SDS011;61365;52.162;4.500;2022-10-16T03:00:55;4.15;;;1.15;;
72684;SDS011;61365;52.162;4.500;2022-10-16T03:03:21;4.40;;;1.35;;
72684;SDS011;61365;52.162;4.500;2022-10-16T03:05:48;2.55;;;1.45;;
72684;SDS011;61365;52.162;4.500;2022-10-16T03:08:14;4.80;;;1.23;;
72684;SDS011;61365;52.162;4.500;2022-10-16T03:10:41;5.13;;;1.33;;
72684;SDS011;61365;52.162;4.500;2022-10-16T03:13:07;4.32;;;1.40;;
72684;SDS011;61365;52.162;4.500;2022-10-16T03:15:33;3.97;;;1.35;;
72684;SDS011;61365;52.162;4.500;2022-10-16T03:18:00;7.75;;;1.83;;
72684;SDS011;61365;52.162;4.500;2022-10-16T03:20:26;3.33;;;1.27;;
72684;SDS011;61365;52.162;4.500;2022-10-16T03:22:52;5.60;;;1.70;;
72684;SDS011;61365;52.162;4.500;2022-10-16T03:25:19;5.25;;;1.45;;
72684;SDS011;61365;52.162;4.500;2022-10-16T03:27:45;5.18;;;1.55;;
72684;SDS011;61365;52.162;4.500;2022-10-16T03:30:11;4.05;;;1.42;;
72684;SDS011;61365;52.162;4.500;2022-10-16T03:32:38;6.30;;;1.58;;
72684;SDS011;61365;52.162;4.500;2022-10-16T03:35:04;6.78;;;1.50;;
72684;SDS011;61365;52.162;4.500;2022-10-16T03:37:31;5.72;;;1.50;;
72684;SDS011;61365;52.162;4.500;2022-10-16T03:39:58;3.97;;;1.40;;
72684;SDS011;61365;52.162;4.500;2022-10-16T03:42:25;4.22;;;1.30;;
72684;SDS011;61365;52.162;4.500;2022-10-16T03:44:51;3.85;;;1.25;;
72684;SDS011;61365;52.162;4.500;2022-10-16T03:47:17;5.05;;;1.73;;
72684;SDS011;61365;52.162;4.500;2022-10-16T03:49:47;5.88;;;1.17;;
72684;SDS011;61365;52.162;4.500;2022-10-16T03:52:14;3.83;;;1.05;;
72684;SDS011;61365;52.162;4.500;2022-10-16T03:54:41;4.25;;;1.25;;
72684;SDS011;61365;52.162;4.500;2022-10-16T03:57:07;5.95;;;1.17;;
72684;SDS011;61365;52.162;4.500;2022-10-16T03:59:33;4.60;;;1.38;;
72684;SDS011;61365;52.162;4.500;2022-10-16T04:02:00;3.70;;;1.17;;
72684;SDS011;61365;52.162;4.500;2022-10-16T04:04:26;6.00;;;1.42;;
72684;SDS011;61365;52.162;4.500;2022-10-16T04:06:52;5.97;;;1.10;;
72684;SDS011;61365;52.162;4.500;2022-10-16T04:09:18;6.93;;;1.17;;
72684;SDS011;61365;52.162;4.500;2022-10-16T04:11:45;3.53;;;1.02;;
72684;SDS011;61365;52.162;4.500;2022-10-16T04:14:11;6.05;;;1.30;;
72684;SDS011;61365;52.162;4.500;2022-10-16T04:16:38;4.95;;;1.20;;
72684;SDS011;61365;52.162;4.500;2022-10-16T04:19:04;7.32;;;1.27;;
72684;SDS011;61365;52.162;4.500;2022-10-16T04:21:30;6.30;;;1.60;;
72684;SDS011;61365;52.162;4.500;2022-10-16T04:23:56;3.30;;;1.10;;
72684;SDS011;61365;52.162;4.500;2022-10-16T04:26:23;3.40;;;1.35;;
72684;SDS011;61365;52.162;4.500;2022-10-16T04:28:49;5.93;;;1.00;;
72684;SDS011;61365;52.162;4.500;2022-10-16T04:31:16;7.65;;;1.30;;
72684;SDS011;61365;52.162;4.500;2022-10-16T04:33:42;7.78;;;1.13;;
72684;SDS011;61365;52.162;4.500;2022-10-16T04:36:09;5.35;;;1.35;;
72684;SDS011;61365;52.162;4.500;2022-10-16T04:38:35;6.60;;;1.38;;
72684;SDS011;61365;52.162;4.500;2022-10-16T04:41:03;3.40;;;0.95;;
72684;SDS011;61365;52.162;4.500;2022-10-16T04:43:30;3.10;;;1.10;;
72684;SDS011;61365;52.162;4.500;2022-10-16T04:45:56;7.85;;;1.20;;
72684;SDS011;61365;52.162;4.500;2022-10-16T04:48:22;4.45;;;1.30;;
72684;SDS011;61365;52.162;4.500;2022-10-16T04:50:49;3.42;;;1.45;;
72684;SDS011;61365;52.162;4.500;2022-10-16T04:53:15;4.88;;;1.42;;
72684;SDS011;61365;52.162;4.500;2022-10-16T04:55:41;5.10;;;1.17;;
72684;SDS011;61365;52.162;4.500;2022-10-16T04:58:09;6.55;;;1.50;;
72684;SDS011;61365;52.162;4.500;2022-10-16T05:00:35;3.60;;;1.40;;
72684;SDS011;61365;52.162;4.500;2022-10-16T05:03:02;4.93;;;1.55;;
72684;SDS011;61365;52.162;4.500;2022-10-16T05:05:31;4.72;;;1.88;;
72684;SDS011;61365;52.162;4.500;2022-10-16T05:07:58;4.38;;;2.20;;
72684;SDS011;61365;52.162;4.500;2022-10-16T05:10:24;14.73;;;2.72;;
72684;SDS011;61365;52.162;4.500;2022-10-16T05:12:50;3.40;;;1.60;;
72684;SDS011;61365;52.162;4.500;2022-10-16T05:15:17;5.10;;;1.70;;
72684;SDS011;61365;52.162;4.500;2022-10-16T05:17:44;5.47;;;1.33;;
72684;SDS011;61365;52.162;4.500;2022-10-16T05:20:10;4.45;;;1.67;;
72684;SDS011;61365;52.162;4.500;2022-10-16T05:22:37;6.47;;;2.15;;
72684;SDS011;61365;52.162;4.500;2022-10-16T05:25:04;7.05;;;1.52;;
72684;SDS011;61365;52.162;4.500;2022-10-16T05:27:31;6.07;;;1.70;;
72684;SDS011;61365;52.162;4.500;2022-10-16T05:29:57;5.53;;;1.77;;
72684;SDS011;61365;52.162;4.500;2022-10-16T05:32:24;7.00;;;1.73;;
72684;SDS011;61365;52.162;4.500;2022-10-16T05:34:50;5.07;;;1.30;;
72684;SDS011;61365;52.162;4.500;2022-10-16T05:37:16;7.53;;;1.85;;
72684;SDS011;61365;52.162;4.500;2022-10-16T05:39:43;4.82;;;1.63;;
72684;SDS011;61365;52.162;4.500;2022-10-16T05:42:09;9.50;;;1.77;;
72684;SDS011;61365;52.162;4.500;2022-10-16T05:44:35;5.13;;;1.88;;
72684;SDS011;61365;52.162;4.500;2022-10-16T05:47:02;7.30;;;2.25;;
72684;SDS011;61365;52.162;4.500;2022-10-16T05:49:28;5.40;;;2.00;;
72684;SDS011;61365;52.162;4.500;2022-10-16T05:51:55;6.88;;;1.70;;
72684;SDS011;61365;52.162;4.500;2022-10-16T05:54:22;5.28;;;1.67;;
72684;SDS011;61365;52.162;4.500;2022-10-16T05:56:48;4.20;;;1.80;;
72684;SDS011;61365;52.162;4.500;2022-10-16T05:59:14;9.02;;;2.08;;
72684;SDS011;61365;52.162;4.500;2022-10-16T06:01:41;6.55;;;2.20;;
72684;SDS011;61365;52.162;4.500;2022-10-16T06:04:08;7.95;;;1.98;;
72684;SDS011;61365;52.162;4.500;2022-10-16T06:06:35;5.05;;;1.80;;
72684;SDS011;61365;52.162;4.500;2022-10-16T06:09:02;4.53;;;1.67;;
72684;SDS011;61365;52.162;4.500;2022-10-16T06:11:30;8.40;;;2.10;;
72684;SDS011;61365;52.162;4.500;2022-10-16T06:13:59;9.30;;;2.20;;
72684;SDS011;61365;52.162;4.500;2022-10-16T06:16:35;6.28;;;2.50;;
72684;SDS011;61365;52.162;4.500;2022-10-16T06:19:03;10.32;;;2.30;;
72684;SDS011;61365;52.162;4.500;2022-10-16T06:21:32;5.07;;;2.20;;
72684;SDS011;61365;52.162;4.500;2022-10-16T06:23:58;7.30;;;1.77;;
72684;SDS011;61365;52.162;4.500;2022-10-16T06:26:25;6.50;;;1.90;;
72684;SDS011;61365;52.162;4.500;2022-10-16T06:28:55;7.55;;;1.70;;
72684;SDS011;61365;52.162;4.500;2022-10-16T06:31:23;6.47;;;2.03;;
72684;SDS011;61365;52.162;4.500;2022-10-16T06:33:53;5.60;;;1.90;;
72684;SDS011;61365;52.162;4.500;2022-10-16T06:36:20;6.78;;;2.40;;
72684;SDS011;61365;52.162;4.500;2022-10-16T06:38:46;5.50;;;1.80;;
72684;SDS011;61365;52.162;4.500;2022-10-16T06:41:14;8.25;;;1.50;;
72684;SDS011;61365;52.162;4.500;2022-10-16T06:43:44;8.15;;;1.40;;
72684;SDS011;61365;52.162;4.500;2022-10-16T06:46:12;11.15;;;1.92;;
72684;SDS011;61365;52.162;4.500;2022-10-16T06:48:41;9.27;;;2.08;;
72684;SDS011;61365;52.162;4.500;2022-10-16T06:53:40;10.35;;;1.52;;
72684;SDS011;61365;52.162;4.500;2022-10-16T06:56:14;7.20;;;1.60;;
72684;SDS011;61365;52.162;4.500;2022-10-16T06:58:44;8.00;;;1.65;;
72684;SDS011;61365;52.162;4.500;2022-10-16T07:01:11;4.43;;;1.48;;
72684;SDS011;61365;52.162;4.500;2022-10-16T07:03:39;9.57;;;1.55;;
72684;SDS011;61365;52.162;4.500;2022-10-16T07:06:08;9.45;;;1.55;;
72684;SDS011;61365;52.162;4.500;2022-10-16T07:08:38;8.10;;;1.52;;
72684;SDS011;61365;52.162;4.500;2022-10-16T07:11:08;8.93;;;1.52;;
72684;SDS011;61365;52.162;4.500;2022-10-16T07:13:41;8.70;;;2.08;;
72684;SDS011;61365;52.162;4.500;2022-10-16T07:16:12;8.07;;;1.52;;
72684;SDS011;61365;52.162;4.500;2022-10-16T07:18:44;7.28;;;1.33;;
72684;SDS011;61365;52.162;4.500;2022-10-16T07:21:13;6.47;;;1.45;;
72684;SDS011;61365;52.162;4.500;2022-10-16T07:23:56;6.18;;;1.65;;
72684;SDS011;61365;52.162;4.500;2022-10-16T07:26:25;14.98;;;1.65;;
72684;SDS011;61365;52.162;4.500;2022-10-16T07:28:55;6.43;;;1.33;;
72684;SDS011;61365;52.162;4.500;2022-10-16T07:31:22;7.07;;;1.52;;
72684;SDS011;61365;52.162;4.500;2022-10-16T07:33:50;10.77;;;1.75;;
72684;SDS011;61365;52.162;4.500;2022-10-16T07:36:17;5.38;;;1.52;;
72684;SDS011;61365;52.162;4.500;2022-10-16T07:38:46;4.07;;;1.33;;
72684;SDS011;61365;52.162;4.500;2022-10-16T07:41:14;9.75;;;1.55;;
72684;SDS011;61365;52.162;4.500;2022-10-16T07:43:47;2.33;;;1.20;;
72684;SDS011;61365;52.162;4.500;2022-10-16T07:46:15;6.78;;;1.50;;
72684;SDS011;61365;52.162;4.500;2022-10-16T07:48:44;4.80;;;1.50;;
72684;SDS011;61365;52.162;4.500;2022-10-16T07:51:16;8.93;;;1.65;;
72684;SDS011;61365;52.162;4.500;2022-10-16T07:53:45;6.90;;;1.63;;
72684;SDS011;61365;52.162;4.500;2022-10-16T07:56:13;6.55;;;1.60;;
72684;SDS011;61365;52.162;4.500;2022-10-16T07:58:41;8.52;;;1.60;;
72684;SDS011;61365;52.162;4.500;2022-10-16T08:01:08;8.23;;;1.85;;
72684;SDS011;61365;52.162;4.500;2022-10-16T08:03:41;10.10;;;1.73;;
72684;SDS011;61365;52.162;4.500;2022-10-16T08:06:09;6.00;;;1.60;;
72684;SDS011;61365;52.162;4.500;2022-10-16T08:08:35;8.82;;;1.58;;
72684;SDS011;61365;52.162;4.500;2022-10-16T08:11:02;10.18;;;1.40;;
72684;SDS011;61365;52.162;4.500;2022-10-16T08:13:31;6.35;;;1.50;;
72684;SDS011;61365;52.162;4.500;2022-10-16T08:15:58;9.13;;;1.67;;
72684;SDS011;61365;52.162;4.500;2022-10-16T08:18:24;11.13;;;1.65;;
72684;SDS011;61365;52.162;4.500;2022-10-16T08:20:55;8.77;;;1.55;;
72684;SDS011;61365;52.162;4.500;2022-10-16T08:23:23;10.32;;;1.65;;
72684;SDS011;61365;52.162;4.500;2022-10-16T08:25:52;12.82;;;1.52;;
72684;SDS011;61365;52.162;4.500;2022-10-16T08:28:20;10.00;;;1.45;;
72684;SDS011;61365;52.162;4.500;2022-10-16T08:30:48;12.27;;;2.10;;
72684;SDS011;61365;52.162;4.500;2022-10-16T08:33:15;11.75;;;2.08;;
72684;SDS011;61365;52.162;4.500;2022-10-16T08:35:41;7.75;;;1.90;;
72684;SDS011;61365;52.162;4.500;2022-10-16T08:38:07;7.18;;;1.52;;
72684;SDS011;61365;52.162;4.500;2022-10-16T08:40:35;10.13;;;1.77;;
72684;SDS011;61365;52.162;4.500;2022-10-16T08:49:01;10.90;;;1.85;;
72684;SDS011;61365;52.162;4.500;2022-10-16T08:51:35;11.48;;;2.03;;
72684;SDS011;61365;52.162;4.500;2022-10-16T08:54:03;15.70;;;2.47;;
72684;SDS011;61365;52.162;4.500;2022-10-16T08:56:37;12.57;;;2.00;;
72684;SDS011;61365;52.162;4.500;2022-10-16T08:59:03;11.05;;;1.80;;
72684;SDS011;61365;52.162;4.500;2022-10-16T09:01:45;12.15;;;2.47;;
72684;SDS011;61365;52.162;4.500;2022-10-16T09:13:01;8.02;;;1.65;;
72684;SDS011;61365;52.162;4.500;2022-10-16T09:18:59;12.88;;;1.98;;
72684;SDS011;61365;52.162;4.500;2022-10-16T09:21:41;10.70;;;1.98;;
72684;SDS011;61365;52.162;4.500;2022-10-16T09:24:15;12.73;;;3.50;;
72684;SDS011;61365;52.162;4.500;2022-10-16T09:26:44;10.63;;;2.20;;
72684;SDS011;61365;52.162;4.500;2022-10-16T09:29:12;14.85;;;1.77;;
72684;SDS011;61365;52.162;4.500;2022-10-16T09:31:47;13.25;;;2.33;;
72684;SDS011;61365;52.162;4.500;2022-10-16T09:37:00;11.35;;;2.15;;
72684;SDS011;61365;52.162;4.500;2022-10-16T09:39:44;11.52;;;1.90;;
72684;SDS011;61365;52.162;4.500;2022-10-16T09:45:01;15.40;;;2.55;;
72684;SDS011;61365;52.162;4.500;2022-10-16T09:47:27;15.65;;;2.40;;
72684;SDS011;61365;52.162;4.500;2022-10-16T09:50:04;17.27;;;2.00;;
72684;SDS011;61365;52.162;4.500;2022-10-16T09:52:47;15.52;;;2.30;;
72684;SDS011;61365;52.162;4.500;2022-10-16T09:55:15;13.65;;;2.22;;
72684;SDS011;61365;52.162;4.500;2022-10-16T09:57:50;14.55;;;2.67;;
72684;SDS011;61365;52.162;4.500;2022-10-16T10:00:21;15.98;;;2.83;;
72684;SDS011;61365;52.162;4.500;2022-10-16T10:02:50;13.70;;;2.60;;
72684;SDS011;61365;52.162;4.500;2022-10-16T10:05:19;15.55;;;2.40;;
72684;SDS011;61365;52.162;4.500;2022-10-16T10:10:28;13.50;;;3.42;;
72684;SDS011;61365;52.162;4.500;2022-10-16T10:15:24;13.25;;;2.22;;
72684;SDS011;61365;52.162;4.500;2022-10-16T10:17:59;19.85;;;8.95;;
72684;SDS011;61365;52.162;4.500;2022-10-16T10:20:31;17.55;;;6.10;;
72684;SDS011;61365;52.162;4.500;2022-10-16T10:23:19;23.38;;;10.32;;
72684;SDS011;61365;52.162;4.500;2022-10-16T10:31:27;12.95;;;3.25;;
72684;SDS011;61365;52.162;4.500;2022-10-16T10:39:56;14.45;;;3.03;;
72684;SDS011;61365;52.162;4.500;2022-10-16T10:45:44;18.13;;;2.22;;
72684;SDS011;61365;52.162;4.500;2022-10-16T10:48:30;14.65;;;2.08;;
72684;SDS011;61365;52.162;4.500;2022-10-16T10:51:40;18.35;;;4.43;;
72684;SDS011;61365;52.162;4.500;2022-10-16T10:54:20;12.68;;;3.40;;
72684;SDS011;61365;52.162;4.500;2022-10-16T10:57:07;12.57;;;4.00;;
72684;SDS011;61365;52.162;4.500;2022-10-16T11:05:47;15.68;;;2.70;;
72684;SDS011;61365;52.162;4.500;2022-10-16T11:08:18;19.45;;;2.88;;
72684;SDS011;61365;52.162;4.500;2022-10-16T11:13:26;10.70;;;2.30;;
72684;SDS011;61365;52.162;4.500;2022-10-16T11:16:17;15.05;;;2.05;;
72684;SDS011;61365;52.162;4.500;2022-10-16T11:21:50;9.85;;;1.80;;
72684;SDS011;61365;52.162;4.500;2022-10-16T11:24:35;9.60;;;2.22;;
72684;SDS011;61365;52.162;4.500;2022-10-16T11:27:19;16.33;;;2.25;;
72684;SDS011;61365;52.162;4.500;2022-10-16T11:30:02;13.35;;;2.78;;
72684;SDS011;61365;52.162;4.500;2022-10-16T11:41:44;12.85;;;1.65;;
72684;SDS011;61365;52.162;4.500;2022-10-16T11:50:28;14.48;;;2.00;;
72684;SDS011;61365;52.162;4.500;2022-10-16T11:56:03;10.25;;;1.67;;
72684;SDS011;61365;52.162;4.500;2022-10-16T12:01:42;23.70;;;8.23;;
72684;SDS011;61365;52.162;4.500;2022-10-16T12:04:20;26.17;;;12.63;;
72684;SDS011;61365;52.162;4.500;2022-10-16T12:07:10;10.20;;;1.80;;
72684;SDS011;61365;52.162;4.500;2022-10-16T12:09:45;10.32;;;2.60;;
72684;SDS011;61365;52.162;4.500;2022-10-16T12:12:25;12.75;;;2.42;;
72684;SDS011;61365;52.162;4.500;2022-10-16T12:17:53;10.85;;;1.73;;
72684;SDS011;61365;52.162;4.500;2022-10-16T12:22:54;8.00;;;1.88;;
72684;SDS011;61365;52.162;4.500;2022-10-16T12:25:26;10.00;;;1.83;;
72684;SDS011;61365;52.162;4.500;2022-10-16T12:28:04;10.45;;;2.30;;
72684;SDS011;61365;52.162;4.500;2022-10-16T12:30:54;10.10;;;1.90;;
72684;SDS011;61365;52.162;4.500;2022-10-16T12:33:37;12.68;;;1.88;;
72684;SDS011;61365;52.162;4.500;2022-10-16T12:36:29;12.07;;;1.90;;
72684;SDS011;61365;52.162;4.500;2022-10-16T12:38:57;13.13;;;2.17;;
72684;SDS011;61365;52.162;4.500;2022-10-16T12:41:26;7.72;;;1.40;;
72684;SDS011;61365;52.162;4.500;2022-10-16T12:44:00;11.43;;;2.05;;
72684;SDS011;61365;52.162;4.500;2022-10-16T12:49:04;15.00;;;2.33;;
72684;SDS011;61365;52.162;4.500;2022-10-16T12:54:13;11.77;;;2.35;;
72684;SDS011;61365;52.162;4.500;2022-10-16T13:00:03;16.17;;;2.30;;
72684;SDS011;61365;52.162;4.500;2022-10-16T13:08:38;12.93;;;2.28;;
72684;SDS011;61365;52.162;4.500;2022-10-16T13:23:46;9.60;;;1.70;;
72684;SDS011;61365;52.162;4.500;2022-10-16T13:26:31;8.77;;;1.77;;
72684;SDS011;61365;52.162;4.500;2022-10-16T13:29:13;13.80;;;2.22;;
72684;SDS011;61365;52.162;4.500;2022-10-16T13:31:40;15.25;;;1.92;;
72684;SDS011;61365;52.162;4.500;2022-10-16T13:34:12;17.38;;;2.33;;
72684;SDS011;61365;52.162;4.500;2022-10-16T13:36:46;11.85;;;1.98;;
72684;SDS011;61365;52.162;4.500;2022-10-16T13:39:26;16.38;;;2.17;;
72684;SDS011;61365;52.162;4.500;2022-10-16T13:42:05;15.20;;;1.98;;
72684;SDS011;61365;52.162;4.500;2022-10-16T13:49:45;9.93;;;1.60;;
72684;SDS011;61365;52.162;4.500;2022-10-16T13:52:16;14.23;;;2.03;;
72684;SDS011;61365;52.162;4.500;2022-10-16T13:54:47;16.27;;;2.40;;
72684;SDS011;61365;52.162;4.500;2022-10-16T13:57:14;11.18;;;2.13;;
72684;SDS011;61365;52.162;4.500;2022-10-16T13:59:42;11.55;;;1.92;;
72684;SDS011;61365;52.162;4.500;2022-10-16T14:02:14;12.77;;;1.95;;
72684;SDS011;61365;52.162;4.500;2022-10-16T14:05:00;10.73;;;2.40;;
72684;SDS011;61365;52.162;4.500;2022-10-16T14:07:32;12.18;;;2.10;;
72684;SDS011;61365;52.162;4.500;2022-10-16T14:10:04;13.73;;;2.83;;
72684;SDS011;61365;52.162;4.500;2022-10-16T14:12:44;10.50;;;2.47;;
72684;SDS011;61365;52.162;4.500;2022-10-16T14:15:16;11.75;;;2.25;;
72684;SDS011;61365;52.162;4.500;2022-10-16T14:17:45;11.90;;;2.00;;
72684;SDS011;61365;52.162;4.500;2022-10-16T14:20:17;9.70;;;2.08;;
72684;SDS011;61365;52.162;4.500;2022-10-16T14:22:48;12.35;;;2.45;;
72684;SDS011;61365;52.162;4.500;2022-10-16T14:28:36;15.35;;;2.15;;
72684;SDS011;61365;52.162;4.500;2022-10-16T14:33:58;9.40;;;2.00;;
72684;SDS011;61365;52.162;4.500;2022-10-16T14:36:26;9.65;;;2.08;;
72684;SDS011;61365;52.162;4.500;2022-10-16T14:38:59;10.13;;;1.63;;
72684;SDS011;61365;52.162;4.500;2022-10-16T14:41:32;9.25;;;2.38;;
72684;SDS011;61365;52.162;4.500;2022-10-16T14:44:09;12.52;;;2.13;;
72684;SDS011;61365;52.162;4.500;2022-10-16T14:46:39;13.18;;;2.58;;
72684;SDS011;61365;52.162;4.500;2022-10-16T14:51:34;14.57;;;2.42;;
72684;SDS011;61365;52.162;4.500;2022-10-16T14:54:01;15.23;;;1.90;;
72684;SDS011;61365;52.162;4.500;2022-10-16T14:56:34;11.02;;;2.17;;
72684;SDS011;61365;52.162;4.500;2022-10-16T14:59:14;14.77;;;2.20;;
72684;SDS011;61365;52.162;4.500;2022-10-16T15:01:45;13.75;;;2.22;;
72684;SDS011;61365;52.162;4.500;2022-10-16T15:04:12;14.95;;;2.40;;
72684;SDS011;61365;52.162;4.500;2022-10-16T15:06:40;11.35;;;2.85;;
72684;SDS011;61365;52.162;4.500;2022-10-16T15:09:06;17.27;;;2.25;;
72684;SDS011;61365;52.162;4.500;2022-10-16T15:11:33;14.35;;;2.20;;
72684;SDS011;61365;52.162;4.500;2022-10-16T15:14:00;10.25;;;2.10;;
72684;SDS011;61365;52.162;4.500;2022-10-16T15:16:26;9.82;;;2.25;;
72684;SDS011;61365;52.162;4.500;2022-10-16T15:18:53;13.10;;;2.20;;
72684;SDS011;61365;52.162;4.500;2022-10-16T15:21:24;14.02;;;2.03;;
72684;SDS011;61365;52.162;4.500;2022-10-16T15:23:57;10.90;;;2.40;;
72684;SDS011;61365;52.162;4.500;2022-10-16T15:26:26;18.05;;;2.92;;
72684;SDS011;61365;52.162;4.500;2022-10-16T15:28:54;17.45;;;2.55;;
72684;SDS011;61365;52.162;4.500;2022-10-16T15:31:21;20.80;;;2.58;;
72684;SDS011;61365;52.162;4.500;2022-10-16T15:33:51;12.85;;;2.72;;
72684;SDS011;61365;52.162;4.500;2022-10-16T15:36:27;12.48;;;2.05;;
72684;SDS011;61365;52.162;4.500;2022-10-16T15:38:56;13.00;;;2.58;;
72684;SDS011;61365;52.162;4.500;2022-10-16T15:41:23;11.38;;;2.22;;
72684;SDS011;61365;52.162;4.500;2022-10-16T15:43:49;13.85;;;2.53;;
72684;SDS011;61365;52.162;4.500;2022-10-16T15:46:18;11.07;;;2.08;;
72684;SDS011;61365;52.162;4.500;2022-10-16T15:48:48;13.70;;;2.58;;
72684;SDS011;61365;52.162;4.500;2022-10-16T15:51:17;14.80;;;2.08;;
72684;SDS011;61365;52.162;4.500;2022-10-16T15:53:44;16.20;;;2.50;;
72684;SDS011;61365;52.162;4.500;2022-10-16T15:56:12;13.57;;;2.70;;
72684;SDS011;61365;52.162;4.500;2022-10-16T15:58:39;10.68;;;2.03;;
72684;SDS011;61365;52.162;4.500;2022-10-16T16:01:06;16.40;;;2.53;;
72684;SDS011;61365;52.162;4.500;2022-10-16T16:03:35;13.73;;;2.50;;
72684;SDS011;61365;52.162;4.500;2022-10-16T16:06:07;38.88;;;21.52;;
72684;SDS011;61365;52.162;4.500;2022-10-16T16:08:36;35.95;;;22.33;;
72684;SDS011;61365;52.162;4.500;2022-10-16T16:13:33;9.30;;;2.88;;
72684;SDS011;61365;52.162;4.500;2022-10-16T16:16:00;14.07;;;3.33;;
72684;SDS011;61365;52.162;4.500;2022-10-16T16:18:27;22.30;;;8.38;;
72684;SDS011;61365;52.162;4.500;2022-10-16T16:20:54;22.02;;;8.95;;
72684;SDS011;61365;52.162;4.500;2022-10-16T16:23:21;22.83;;;6.80;;
72684;SDS011;61365;52.162;4.500;2022-10-16T16:26:04;16.92;;;4.60;;
72684;SDS011;61365;52.162;4.500;2022-10-16T16:28:42;18.30;;;4.88;;
72684;SDS011;61365;52.162;4.500;2022-10-16T16:31:09;15.68;;;4.70;;
72684;SDS011;61365;52.162;4.500;2022-10-16T16:33:36;14.80;;;4.68;;
72684;SDS011;61365;52.162;4.500;2022-10-16T16:36:03;20.70;;;6.93;;
72684;SDS011;61365;52.162;4.500;2022-10-16T16:38:32;20.48;;;6.20;;
72684;SDS011;61365;52.162;4.500;2022-10-16T16:40:59;19.92;;;5.18;;
72684;SDS011;61365;52.162;4.500;2022-10-16T16:43:37;63.13;;;36.05;;
72684;SDS011;61365;52.162;4.500;2022-10-16T16:46:03;22.92;;;7.50;;
72684;SDS011;61365;52.162;4.500;2022-10-16T16:48:29;13.68;;;4.22;;
72684;SDS011;61365;52.162;4.500;2022-10-16T16:51:02;15.30;;;3.75;;
72684;SDS011;61365;52.162;4.500;2022-10-16T16:53:32;15.02;;;4.18;;
72684;SDS011;61365;52.162;4.500;2022-10-16T16:56:01;14.82;;;3.72;;
72684;SDS011;61365;52.162;4.500;2022-10-16T16:58:30;15.77;;;4.40;;
72684;SDS011;61365;52.162;4.500;2022-10-16T17:00:58;20.63;;;6.25;;
72684;SDS011;61365;52.162;4.500;2022-10-16T17:03:26;19.52;;;4.90;;
72684;SDS011;61365;52.162;4.500;2022-10-16T17:06:01;24.75;;;4.80;;
72684;SDS011;61365;52.162;4.500;2022-10-16T17:08:32;25.92;;;6.25;;
72684;SDS011;61365;52.162;4.500;2022-10-16T17:11:00;19.08;;;6.10;;
72684;SDS011;61365;52.162;4.500;2022-10-16T17:13:28;17.23;;;5.68;;
72684;SDS011;61365;52.162;4.500;2022-10-16T17:16:00;19.60;;;6.35;;
72684;SDS011;61365;52.162;4.500;2022-10-16T17:18:27;20.73;;;4.60;;
72684;SDS011;61365;52.162;4.500;2022-10-16T17:20:53;22.05;;;5.63;;
72684;SDS011;61365;52.162;4.500;2022-10-16T17:23:19;17.25;;;5.53;;